Comox Airport
CYQQ : rendu visible

Aérodrome :











RETROUVEZ-NOUS SUR...

 
LOGIN :

S'inscrire | Disclaimer

   EN    FR    IT 

 









Légende :    VFR   VFR Marginal   IFR   IFR Intensif   IFR Très Intensif
Visi : 
Plafond : 
>= 8 km
>= 3000ft
5 à 8 km
1000 à 3000 ft
1500m à 5 km
500 à 1000 ft
800 à 1500m
200 à 500 ft
< 800m
< 200 ft
Symboles :   Orages  Brouillard  Fortes neiges  Fortes précipitations  Vent > 20 kt






- Altitude de l'aérodrome : 84 ft
- Code IATA : YQQ


CYQQ - Comox

DERNIER METAR :
  • 281900Z 03009KT 20SM FEW100 FEW270 20/09 A3006 RMK AC1CI1 SLP181

METARs EXPIRÉS :
  • 281800Z 36011KT 20SM FEW100 FEW270 19/08 A3008 RMK AC1CI2 SLP185
  • 281700Z 34009KT 20SM FEW100 BKN240 18/09 A3008 RMK AC1CI6 SLP187

TAF TAF CYQQ
Valide du 28 à 18h jusqu'au 29 à 18h UTC


281739Z 2818/2918 34008KT P6SM FEW100
BECMG 2818/2820 12005KT
BECMG 2823/2901 VRB03KT
FM291100 32008KT P6SM SCT100 BKN200 RMK NXT FCST BY 290000Z
FIR CZVR / Amérique du Nord



MET'MAP, la Météo Aéronautique d'un coup d'oeil ! - Copyright ORBIFLY Décembre 2007 - Disclaimer

ORBIFLY MET'MAP TEAM :

Programmation & Développement : Alexandra Zaïnal
Sur une idée originale de : Baudouin d'Aumeries
Assistance à la programmation : Marc-Olivier Méhu
Soutien technique & logistique : Manuel Goepfert

Contact : metmap@orbifly.com




SOURCES & CREDITS :

   NOAA       Earth
Advisory